sensor_id;sensor_type;location;lat;lon;timestamp;pressure;altitude;pressure_sealevel;temperature;humidity
25722;BME280;13578;53.450;15.496;2022-11-23T00:02:17;98685.81;;;0.38;100.00
25722;BME280;13578;53.450;15.496;2022-11-23T00:05:18;98686.69;;;0.39;100.00
25722;BME280;13578;53.450;15.496;2022-11-23T00:08:18;98689.94;;;0.44;100.00
25722;BME280;13578;53.450;15.496;2022-11-23T00:11:20;98694.50;;;0.43;100.00
25722;BME280;13578;53.450;15.496;2022-11-23T00:14:21;98692.19;;;0.37;100.00
25722;BME280;13578;53.450;15.496;2022-11-23T00:17:22;98681.84;;;0.44;100.00
25722;BME280;13578;53.450;15.496;2022-11-23T00:20:22;98676.56;;;0.42;100.00
25722;BME280;13578;53.450;15.496;2022-11-23T00:23:23;98671.81;;;0.46;100.00
25722;BME280;13578;53.450;15.496;2022-11-23T00:26:24;98670.38;;;0.40;100.00
25722;BME280;13578;53.450;15.496;2022-11-23T00:29:24;98683.47;;;0.46;100.00
25722;BME280;13578;53.450;15.496;2022-11-23T00:32:25;98668.34;;;0.44;100.00
25722;BME280;13578;53.450;15.496;2022-11-23T00:35:28;98666.50;;;0.44;100.00
25722;BME280;13578;53.450;15.496;2022-11-23T00:38:28;98666.00;;;0.52;100.00
25722;BME280;13578;53.450;15.496;2022-11-23T00:41:29;98664.69;;;0.45;100.00
25722;BME280;13578;53.450;15.496;2022-11-23T00:44:30;98658.22;;;0.47;100.00
25722;BME280;13578;53.450;15.496;2022-11-23T00:47:30;98658.56;;;0.56;100.00
25722;BME280;13578;53.450;15.496;2022-11-23T00:50:31;98657.50;;;0.58;100.00
25722;BME280;13578;53.450;15.496;2022-11-23T00:53:31;98667.63;;;0.55;100.00
25722;BME280;13578;53.450;15.496;2022-11-23T00:56:33;98664.09;;;0.54;100.00
25722;BME280;13578;53.450;15.496;2022-11-23T00:59:34;98661.69;;;0.50;100.00
25722;BME280;13578;53.450;15.496;2022-11-23T01:02:35;98676.59;;;0.55;100.00
25722;BME280;13578;53.450;15.496;2022-11-23T01:05:36;98673.59;;;0.60;100.00
25722;BME280;13578;53.450;15.496;2022-11-23T01:08:38;98672.44;;;0.64;100.00
25722;BME280;13578;53.450;15.496;2022-11-23T01:11:38;98680.06;;;0.57;100.00
25722;BME280;13578;53.450;15.496;2022-11-23T01:14:39;98684.19;;;0.63;100.00
25722;BME280;13578;53.450;15.496;2022-11-23T01:17:40;98681.69;;;0.60;100.00
25722;BME280;13578;53.450;15.496;2022-11-23T01:20:41;98689.59;;;0.63;100.00
25722;BME280;13578;53.450;15.496;2022-11-23T01:23:41;98682.00;;;0.55;100.00
25722;BME280;13578;53.450;15.496;2022-11-23T01:26:42;98692.47;;;0.60;100.00
25722;BME280;13578;53.450;15.496;2022-11-23T01:29:43;98691.75;;;0.58;100.00
25722;BME280;13578;53.450;15.496;2022-11-23T01:32:44;98682.66;;;0.59;100.00
25722;BME280;13578;53.450;15.496;2022-11-23T01:35:44;98680.28;;;0.54;100.00
25722;BME280;13578;53.450;15.496;2022-11-23T01:38:47;98685.97;;;0.50;100.00
25722;BME280;13578;53.450;15.496;2022-11-23T01:41:48;98682.66;;;0.59;100.00
25722;BME280;13578;53.450;15.496;2022-11-23T01:44:49;98683.53;;;0.59;100.00
25722;BME280;13578;53.450;15.496;2022-11-23T01:47:51;98692.41;;;0.61;100.00
25722;BME280;13578;53.450;15.496;2022-11-23T01:50:52;98687.66;;;0.65;100.00
25722;BME280;13578;53.450;15.496;2022-11-23T01:53:56;98685.16;;;0.62;100.00
25722;BME280;13578;53.450;15.496;2022-11-23T01:57:01;98685.03;;;0.63;100.00
25722;BME280;13578;53.450;15.496;2022-11-23T02:00:04;98689.72;;;0.61;100.00
25722;BME280;13578;53.450;15.496;2022-11-23T02:03:06;98679.00;;;0.60;100.00
25722;BME280;13578;53.450;15.496;2022-11-23T02:06:10;98675.91;;;0.66;100.00
25722;BME280;13578;53.450;15.496;2022-11-23T02:09:14;98684.75;;;0.68;100.00
25722;BME280;13578;53.450;15.496;2022-11-23T02:12:15;98684.00;;;0.66;100.00
25722;BME280;13578;53.450;15.496;2022-11-23T02:15:16;98690.38;;;0.65;100.00
25722;BME280;13578;53.450;15.496;2022-11-23T02:18:25;98680.41;;;0.66;100.00
25722;BME280;13578;53.450;15.496;2022-11-23T02:21:27;98684.00;;;0.66;100.00
25722;BME280;13578;53.450;15.496;2022-11-23T02:24:35;98674.56;;;0.59;100.00
25722;BME280;13578;53.450;15.496;2022-11-23T02:27:39;98681.38;;;0.65;100.00
25722;BME280;13578;53.450;15.496;2022-11-23T02:30:41;98685.28;;;0.60;100.00
25722;BME280;13578;53.450;15.496;2022-11-23T02:33:42;98682.88;;;0.56;100.00
25722;BME280;13578;53.450;15.496;2022-11-23T02:36:52;98681.03;;;0.56;100.00
25722;BME280;13578;53.450;15.496;2022-11-23T02:39:55;98679.94;;;0.59;100.00
25722;BME280;13578;53.450;15.496;2022-11-23T02:42:57;98685.88;;;0.51;100.00
25722;BME280;13578;53.450;15.496;2022-11-23T02:46:02;98684.38;;;0.60;100.00
25722;BME280;13578;53.450;15.496;2022-11-23T02:49:03;98684.50;;;0.58;100.00
25722;BME280;13578;53.450;15.496;2022-11-23T02:52:05;98695.00;;;0.63;100.00
25722;BME280;13578;53.450;15.496;2022-11-23T02:55:05;98692.06;;;0.53;100.00
25722;BME280;13578;53.450;15.496;2022-11-23T02:58:06;98691.34;;;0.64;100.00
25722;BME280;13578;53.450;15.496;2022-11-23T03:01:07;98702.53;;;0.58;100.00
25722;BME280;13578;53.450;15.496;2022-11-23T03:04:08;98702.56;;;0.71;100.00
25722;BME280;13578;53.450;15.496;2022-11-23T03:07:09;98688.03;;;0.73;100.00
25722;BME280;13578;53.450;15.496;2022-11-23T03:10:10;98695.66;;;0.67;100.00
25722;BME280;13578;53.450;15.496;2022-11-23T03:13:11;98693.06;;;0.65;100.00
25722;BME280;13578;53.450;15.496;2022-11-23T03:16:11;98691.09;;;0.67;100.00
25722;BME280;13578;53.450;15.496;2022-11-23T03:19:12;98689.19;;;0.69;100.00
25722;BME280;13578;53.450;15.496;2022-11-23T03:22:13;98697.38;;;0.68;100.00
25722;BME280;13578;53.450;15.496;2022-11-23T03:25:13;98699.50;;;0.62;100.00
25722;BME280;13578;53.450;15.496;2022-11-23T03:28:14;98700.09;;;0.68;100.00
25722;BME280;13578;53.450;15.496;2022-11-23T03:31:15;98711.31;;;0.61;100.00
25722;BME280;13578;53.450;15.496;2022-11-23T03:34:15;98706.00;;;0.60;100.00
25722;BME280;13578;53.450;15.496;2022-11-23T03:37:16;98694.22;;;0.61;100.00
25722;BME280;13578;53.450;15.496;2022-11-23T03:40:17;98698.47;;;0.65;100.00
25722;BME280;13578;53.450;15.496;2022-11-23T03:43:17;98711.00;;;0.66;100.00
25722;BME280;13578;53.450;15.496;2022-11-23T03:46:19;98718.13;;;0.67;100.00
25722;BME280;13578;53.450;15.496;2022-11-23T03:49:19;98712.75;;;0.80;100.00
25722;BME280;13578;53.450;15.496;2022-11-23T03:52:20;98717.63;;;0.75;100.00
25722;BME280;13578;53.450;15.496;2022-11-23T03:55:20;98711.66;;;0.70;100.00
25722;BME280;13578;53.450;15.496;2022-11-23T03:58:21;98712.72;;;0.67;100.00
25722;BME280;13578;53.450;15.496;2022-11-23T04:01:22;98699.31;;;0.66;100.00
25722;BME280;13578;53.450;15.496;2022-11-23T04:04:22;98696.72;;;0.64;100.00
25722;BME280;13578;53.450;15.496;2022-11-23T04:07:23;98706.66;;;0.63;100.00
25722;BME280;13578;53.450;15.496;2022-11-23T04:10:24;98706.00;;;0.60;100.00
25722;BME280;13578;53.450;15.496;2022-11-23T04:13:25;98707.06;;;0.57;100.00
25722;BME280;13578;53.450;15.496;2022-11-23T04:16:26;98710.06;;;0.53;100.00
25722;BME280;13578;53.450;15.496;2022-11-23T04:19:27;98715.81;;;0.61;100.00
25722;BME280;13578;53.450;15.496;2022-11-23T04:22:28;98711.19;;;0.63;100.00
25722;BME280;13578;53.450;15.496;2022-11-23T04:25:28;98711.19;;;0.63;100.00
25722;BME280;13578;53.450;15.496;2022-11-23T04:28:29;98713.34;;;0.58;100.00
25722;BME280;13578;53.450;15.496;2022-11-23T04:31:30;98705.13;;;0.59;100.00
25722;BME280;13578;53.450;15.496;2022-11-23T04:34:30;98706.88;;;0.60;100.00
25722;BME280;13578;53.450;15.496;2022-11-23T04:37:31;98708.81;;;0.58;100.00
25722;BME280;13578;53.450;15.496;2022-11-23T04:40:31;98703.88;;;0.65;100.00
25722;BME280;13578;53.450;15.496;2022-11-23T04:43:32;98703.00;;;0.65;100.00
25722;BME280;13578;53.450;15.496;2022-11-23T04:46:33;98703.88;;;0.65;100.00
25722;BME280;13578;53.450;15.496;2022-11-23T04:49:35;98697.69;;;0.63;100.00
25722;BME280;13578;53.450;15.496;2022-11-23T04:52:35;98700.22;;;0.66;100.00
25722;BME280;13578;53.450;15.496;2022-11-23T04:55:36;98696.06;;;0.60;100.00
25722;BME280;13578;53.450;15.496;2022-11-23T04:58:37;98701.66;;;0.57;100.00
25722;BME280;13578;53.450;15.496;2022-11-23T05:01:37;98696.91;;;0.61;100.00
25722;BME280;13578;53.450;15.496;2022-11-23T05:04:38;98702.44;;;0.59;100.00
25722;BME280;13578;53.450;15.496;2022-11-23T05:07:39;98700.81;;;0.57;100.00
25722;BME280;13578;53.450;15.496;2022-11-23T05:10:40;98699.94;;;0.56;100.00
25722;BME280;13578;53.450;15.496;2022-11-23T05:13:41;98685.75;;;0.53;100.00
25722;BME280;13578;53.450;15.496;2022-11-23T05:16:41;98690.56;;;0.62;100.00
25722;BME280;13578;53.450;15.496;2022-11-23T05:19:42;98689.41;;;0.66;100.00
25722;BME280;13578;53.450;15.496;2022-11-23T05:22:44;98691.75;;;0.58;100.00
25722;BME280;13578;53.450;15.496;2022-11-23T05:25:45;98701.25;;;0.63;100.00
25722;BME280;13578;53.450;15.496;2022-11-23T05:28:46;98703.66;;;0.68;100.00
25722;BME280;13578;53.450;15.496;2022-11-23T05:31:46;98697.69;;;0.63;100.00
25722;BME280;13578;53.450;15.496;2022-11-23T05:34:47;98702.13;;;0.64;100.00
25722;BME280;13578;53.450;15.496;2022-11-23T05:37:49;98693.25;;;0.62;100.00
25722;BME280;13578;53.450;15.496;2022-11-23T05:40:49;98701.47;;;0.60;100.00
25722;BME280;13578;53.450;15.496;2022-11-23T05:43:50;98695.00;;;0.63;100.00
25722;BME280;13578;53.450;15.496;2022-11-23T05:46:50;98701.91;;;0.67;100.00
25722;BME280;13578;53.450;15.496;2022-11-23T05:49:51;98710.00;;;0.67;100.00
25722;BME280;13578;53.450;15.496;2022-11-23T05:52:52;98699.22;;;0.67;100.00
25722;BME280;13578;53.450;15.496;2022-11-23T05:55:58;98695.34;;;0.71;100.00
25722;BME280;13578;53.450;15.496;2022-11-23T05:59:00;98704.41;;;0.70;100.00
25722;BME280;13578;53.450;15.496;2022-11-23T06:02:00;98700.88;;;0.70;100.00
25722;BME280;13578;53.450;15.496;2022-11-23T06:05:02;98703.56;;;0.70;100.00
25722;BME280;13578;53.450;15.496;2022-11-23T06:08:02;98705.94;;;0.74;100.00
25722;BME280;13578;53.450;15.496;2022-11-23T06:11:03;98707.47;;;0.78;100.00
25722;BME280;13578;53.450;15.496;2022-11-23T06:14:04;98706.94;;;0.73;100.00
25722;BME280;13578;53.450;15.496;2022-11-23T06:17:04;98705.19;;;0.72;100.00
25722;BME280;13578;53.450;15.496;2022-11-23T06:20:05;98708.31;;;0.79;100.00
25722;BME280;13578;53.450;15.496;2022-11-23T06:23:06;98715.56;;;0.78;100.00
25722;BME280;13578;53.450;15.496;2022-11-23T06:26:07;98730.72;;;0.81;100.00
25722;BME280;13578;53.450;15.496;2022-11-23T06:29:07;98728.84;;;0.82;100.00
25722;BME280;13578;53.450;15.496;2022-11-23T06:32:08;98726.16;;;0.82;100.00
25722;BME280;13578;53.450;15.496;2022-11-23T06:35:09;98724.88;;;0.87;100.00
25722;BME280;13578;53.450;15.496;2022-11-23T06:38:09;98735.59;;;0.89;100.00
25722;BME280;13578;53.450;15.496;2022-11-23T06:41:10;98743.69;;;0.89;100.00
25722;BME280;13578;53.450;15.496;2022-11-23T06:44:11;98746.38;;;0.89;100.00
25722;BME280;13578;53.450;15.496;2022-11-23T06:47:11;98739.34;;;0.86;100.00
25722;BME280;13578;53.450;15.496;2022-11-23T06:50:12;98747.56;;;0.85;100.00
25722;BME280;13578;53.450;15.496;2022-11-23T06:53:14;98746.31;;;0.90;100.00
25722;BME280;13578;53.450;15.496;2022-11-23T06:56:14;98743.13;;;0.84;100.00
25722;BME280;13578;53.450;15.496;2022-11-23T06:59:15;98745.84;;;0.84;100.00
25722;BME280;13578;53.450;15.496;2022-11-23T07:02:16;98750.16;;;0.86;100.00
25722;BME280;13578;53.450;15.496;2022-11-23T07:05:16;98752.38;;;0.94;100.00
25722;BME280;13578;53.450;15.496;2022-11-23T07:08:17;98743.91;;;0.86;100.00
25722;BME280;13578;53.450;15.496;2022-11-23T07:11:17;98756.69;;;0.97;100.00
25722;BME280;13578;53.450;15.496;2022-11-23T07:14:18;98758.50;;;0.96;100.00
25722;BME280;13578;53.450;15.496;2022-11-23T07:17:18;98755.81;;;0.96;100.00
25722;BME280;13578;53.450;15.496;2022-11-23T07:20:19;98763.19;;;0.94;100.00
25722;BME280;13578;53.450;15.496;2022-11-23T07:23:20;98761.13;;;0.98;100.00
25722;BME280;13578;53.450;15.496;2022-11-23T07:26:20;98759.50;;;0.95;100.00
25722;BME280;13578;53.450;15.496;2022-11-23T07:29:21;98764.16;;;0.93;100.00
25722;BME280;13578;53.450;15.496;2022-11-23T07:32:21;98756.81;;;0.95;100.00
25722;BME280;13578;53.450;15.496;2022-11-23T07:35:22;98764.50;;;1.01;100.00
25722;BME280;13578;53.450;15.496;2022-11-23T07:38:23;98769.69;;;1.04;100.00
25722;BME280;13578;53.450;15.496;2022-11-23T07:41:23;98766.25;;;1.02;100.00
25722;BME280;13578;53.450;15.496;2022-11-23T07:44:26;98760.06;;;1.00;100.00
25722;BME280;13578;53.450;15.496;2022-11-23T07:47:27;98769.13;;;0.99;100.00
25722;BME280;13578;53.450;15.496;2022-11-23T07:50:28;98765.78;;;0.95;100.00
25722;BME280;13578;53.450;15.496;2022-11-23T07:53:29;98765.34;;;1.02;100.00
25722;BME280;13578;53.450;15.496;2022-11-23T07:56:29;98770.31;;;0.95;100.00
25722;BME280;13578;53.450;15.496;2022-11-23T07:59:30;98769.31;;;0.96;100.00
25722;BME280;13578;53.450;15.496;2022-11-23T08:02:31;98777.91;;;1.03;100.00
25722;BME280;13578;53.450;15.496;2022-11-23T08:05:32;98776.03;;;1.03;100.00
25722;BME280;13578;53.450;15.496;2022-11-23T08:08:34;98779.53;;;1.05;100.00
25722;BME280;13578;53.450;15.496;2022-11-23T08:11:35;98784.56;;;0.97;100.00
25722;BME280;13578;53.450;15.496;2022-11-23T08:14:36;98776.81;;;1.05;100.00
25722;BME280;13578;53.450;15.496;2022-11-23T08:17:37;98779.53;;;1.05;100.00
25722;BME280;13578;53.450;15.496;2022-11-23T08:20:37;98794.09;;;1.03;100.00
25722;BME280;13578;53.450;15.496;2022-11-23T08:23:38;98794.09;;;1.03;100.00
25722;BME280;13578;53.450;15.496;2022-11-23T08:26:39;98789.47;;;1.05;100.00
25722;BME280;13578;53.450;15.496;2022-11-23T08:29:39;98794.34;;;1.13;100.00
25722;BME280;13578;53.450;15.496;2022-11-23T08:32:40;98789.16;;;1.09;100.00
25722;BME280;13578;53.450;15.496;2022-11-23T08:35:41;98790.56;;;1.15;100.00
25722;BME280;13578;53.450;15.496;2022-11-23T08:38:42;98795.72;;;1.05;100.00
25722;BME280;13578;53.450;15.496;2022-11-23T08:41:43;98794.56;;;1.09;100.00
25722;BME280;13578;53.450;15.496;2022-11-23T08:44:43;98795.44;;;1.10;100.00
25722;BME280;13578;53.450;15.496;2022-11-23T08:47:44;98802.34;;;1.14;100.00
25722;BME280;13578;53.450;15.496;2022-11-23T08:50:45;98805.81;;;1.16;100.00
25722;BME280;13578;53.450;15.496;2022-11-23T08:53:45;98820.31;;;1.15;100.00
25722;BME280;13578;53.450;15.496;2022-11-23T08:56:46;98808.63;;;1.15;100.00
25722;BME280;13578;53.450;15.496;2022-11-23T08:59:47;98806.72;;;1.17;100.00
25722;BME280;13578;53.450;15.496;2022-11-23T09:02:47;98805.63;;;1.19;100.00
25722;BME280;13578;53.450;15.496;2022-11-23T09:05:48;98809.06;;;1.21;100.00
25722;BME280;13578;53.450;15.496;2022-11-23T09:08:50;98811.13;;;1.18;100.00
25722;BME280;13578;53.450;15.496;2022-11-23T09:11:50;98815.19;;;1.10;100.00
25722;BME280;13578;53.450;15.496;2022-11-23T09:14:53;98811.88;;;1.20;100.00
25722;BME280;13578;53.450;15.496;2022-11-23T09:17:53;98812.13;;;1.17;100.00
25722;BME280;13578;53.450;15.496;2022-11-23T09:20:54;98817.09;;;1.23;100.00
25722;BME280;13578;53.450;15.496;2022-11-23T09:23:56;98811.81;;;1.34;100.00
25722;BME280;13578;53.450;15.496;2022-11-23T09:26:56;98812.25;;;1.28;100.00
25722;BME280;13578;53.450;15.496;2022-11-23T09:29:57;98812.44;;;1.25;100.00
25722;BME280;13578;53.450;15.496;2022-11-23T09:32:58;98807.59;;;1.30;100.00
25722;BME280;13578;53.450;15.496;2022-11-23T09:36:00;98818.66;;;1.40;100.00
25722;BME280;13578;53.450;15.496;2022-11-23T09:39:01;98811.50;;;1.39;100.00
25722;BME280;13578;53.450;15.496;2022-11-23T09:45:26;98806.78;;;1.55;100.00
25722;BME280;13578;53.450;15.496;2022-11-23T09:51:54;98799.03;;;1.64;100.00
25722;BME280;13578;53.450;15.496;2022-11-23T09:55:20;98798.59;;;1.70;100.00
25722;BME280;13578;53.450;15.496;2022-11-23T09:58:21;98801.81;;;1.62;100.00
25722;BME280;13578;53.450;15.496;2022-11-23T10:01:23;98797.94;;;1.66;100.00
25722;BME280;13578;53.450;15.496;2022-11-23T10:04:25;98793.50;;;1.65;100.00
25722;BME280;13578;53.450;15.496;2022-11-23T10:11:14;98802.81;;;1.74;100.00
25722;BME280;13578;53.450;15.496;2022-11-23T10:18:07;98802.50;;;1.92;100.00
25722;BME280;13578;53.450;15.496;2022-11-23T10:21:18;98805.63;;;2.11;100.00
25722;BME280;13578;53.450;15.496;2022-11-23T10:24:25;98813.66;;;2.13;100.00
25722;BME280;13578;53.450;15.496;2022-11-23T10:27:30;98807.50;;;2.11;100.00
25722;BME280;13578;53.450;15.496;2022-11-23T10:30:31;98811.16;;;2.10;100.00
25722;BME280;13578;53.450;15.496;2022-11-23T10:33:40;98813.78;;;1.98;100.00
25722;BME280;13578;53.450;15.496;2022-11-23T10:36:42;98805.41;;;2.01;100.00
25722;BME280;13578;53.450;15.496;2022-11-23T10:39:43;98807.59;;;1.96;100.00
25722;BME280;13578;53.450;15.496;2022-11-23T10:42:51;98810.31;;;1.96;100.00
25722;BME280;13578;53.450;15.496;2022-11-23T10:49:25;98793.44;;;2.05;100.00
25722;BME280;13578;53.450;15.496;2022-11-23T10:52:30;98799.47;;;2.09;100.00
25722;BME280;13578;53.450;15.496;2022-11-23T10:55:54;98792.09;;;2.11;100.00
25722;BME280;13578;53.450;15.496;2022-11-23T10:58:57;98788.88;;;2.19;100.00
25722;BME280;13578;53.450;15.496;2022-11-23T11:02:00;98787.78;;;2.21;100.00
25722;BME280;13578;53.450;15.496;2022-11-23T11:05:33;98790.03;;;2.28;100.00
25722;BME280;13578;53.450;15.496;2022-11-23T11:08:45;98785.91;;;2.22;100.00
25722;BME280;13578;53.450;15.496;2022-11-23T11:11:51;98795.56;;;2.26;100.00
25722;BME280;13578;53.450;15.496;2022-11-23T11:15:17;98790.78;;;2.30;100.00
25722;BME280;13578;53.450;15.496;2022-11-23T11:18:19;98788.41;;;2.25;100.00
25722;BME280;13578;53.450;15.496;2022-11-23T11:21:33;98796.09;;;2.31;100.00
25722;BME280;13578;53.450;15.496;2022-11-23T11:24:42;98791.88;;;2.27;100.00
25722;BME280;13578;53.450;15.496;2022-11-23T11:27:50;98789.28;;;2.26;100.00
25722;BME280;13578;53.450;15.496;2022-11-23T11:34:30;98782.56;;;2.31;100.00
25722;BME280;13578;53.450;15.496;2022-11-23T11:37:41;98781.59;;;2.32;100.00
25722;BME280;13578;53.450;15.496;2022-11-23T11:40:48;98777.66;;;2.36;100.00
25722;BME280;13578;53.450;15.496;2022-11-23T11:43:58;98782.09;;;2.37;100.00
25722;BME280;13578;53.450;15.496;2022-11-23T11:47:17;98787.75;;;2.34;100.00
25722;BME280;13578;53.450;15.496;2022-11-23T11:50:24;98781.91;;;2.41;100.00
25722;BME280;13578;53.450;15.496;2022-11-23T11:53:38;98781.44;;;2.47;100.00
25722;BME280;13578;53.450;15.496;2022-11-23T11:56:45;98781.66;;;2.44;100.00
25722;BME280;13578;53.450;15.496;2022-11-23T11:59:48;98781.19;;;2.50;100.00
25722;BME280;13578;53.450;15.496;2022-11-23T12:03:11;98780.88;;;2.54;100.00
25722;BME280;13578;53.450;15.496;2022-11-23T12:06:58;98782.94;;;2.51;100.00
25722;BME280;13578;53.450;15.496;2022-11-23T12:13:35;98793.75;;;2.64;100.00
25722;BME280;13578;53.450;15.496;2022-11-23T12:24:19;98790.09;;;2.52;100.00
25722;BME280;13578;53.450;15.496;2022-11-23T12:38:03;98788.44;;;2.62;100.00
25722;BME280;13578;53.450;15.496;2022-11-23T12:51:13;98797.56;;;2.61;100.00
25722;BME280;13578;53.450;15.496;2022-11-23T12:57:53;98819.25;;;2.48;100.00
25722;BME280;13578;53.450;15.496;2022-11-23T13:01:03;98811.00;;;2.50;100.00
25722;BME280;13578;53.450;15.496;2022-11-23T13:04:13;98807.88;;;2.56;100.00
25722;BME280;13578;53.450;15.496;2022-11-23T13:07:38;98808.59;;;2.58;100.00
25722;BME280;13578;53.450;15.496;2022-11-23T13:11:18;98808.38;;;2.61;100.00
25722;BME280;13578;53.450;15.496;2022-11-23T13:21:46;98806.78;;;2.59;100.00
25722;BME280;13578;53.450;15.496;2022-11-23T13:24:37;98808.50;;;2.60;100.00
25722;BME280;13578;53.450;15.496;2022-11-23T13:34:45;98800.94;;;2.39;100.00
25722;BME280;13578;53.450;15.496;2022-11-23T13:40:56;98796.72;;;2.48;100.00
25722;BME280;13578;53.450;15.496;2022-11-23T13:43:57;98806.59;;;2.49;100.00
25722;BME280;13578;53.450;15.496;2022-11-23T13:50:18;98799.66;;;2.32;100.00
25722;BME280;13578;53.450;15.496;2022-11-23T13:53:33;98795.31;;;2.29;100.00
25722;BME280;13578;53.450;15.496;2022-11-23T13:56:36;98793.59;;;2.28;100.00
25722;BME280;13578;53.450;15.496;2022-11-23T13:59:38;98807.25;;;2.27;100.00
25722;BME280;13578;53.450;15.496;2022-11-23T14:02:39;98801.31;;;2.34;100.00
25722;BME280;13578;53.450;15.496;2022-11-23T14:15:19;98808.34;;;2.24;100.00
25722;BME280;13578;53.450;15.496;2022-11-23T14:29:18;98805.09;;;2.19;100.00
25722;BME280;13578;53.450;15.496;2022-11-23T14:38:53;98815.72;;;2.09;100.00
25722;BME280;13578;53.450;15.496;2022-11-23T14:41:59;98813.75;;;2.11;100.00
25722;BME280;13578;53.450;15.496;2022-11-23T14:45:02;98819.16;;;2.11;100.00
25722;BME280;13578;53.450;15.496;2022-11-23T14:48:39;98824.81;;;2.08;100.00
25722;BME280;13578;53.450;15.496;2022-11-23T14:51:42;98826.09;;;2.02;100.00
25722;BME280;13578;53.450;15.496;2022-11-23T14:54:51;98822.31;;;2.05;100.00
25722;BME280;13578;53.450;15.496;2022-11-23T14:57:57;98830.88;;;1.99;100.00
25722;BME280;13578;53.450;15.496;2022-11-23T15:00:59;98818.97;;;2.01;100.00
25722;BME280;13578;53.450;15.496;2022-11-23T15:04:09;98827.63;;;1.94;100.00
25722;BME280;13578;53.450;15.496;2022-11-23T15:07:24;98829.34;;;1.95;100.00
25722;BME280;13578;53.450;15.496;2022-11-23T15:13:52;98834.75;;;1.82;100.00
25722;BME280;13578;53.450;15.496;2022-11-23T15:16:54;98837.47;;;1.82;100.00
25722;BME280;13578;53.450;15.496;2022-11-23T15:19:59;98838.63;;;1.78;100.00
25722;BME280;13578;53.450;15.496;2022-11-23T15:23:01;98844.16;;;1.76;100.00
25722;BME280;13578;53.450;15.496;2022-11-23T15:26:05;98839.06;;;1.71;100.00
25722;BME280;13578;53.450;15.496;2022-11-23T15:29:33;98838.63;;;1.78;100.00
25722;BME280;13578;53.450;15.496;2022-11-23T15:32:34;98838.94;;;1.73;100.00
25722;BME280;13578;53.450;15.496;2022-11-23T15:35:37;98847.63;;;1.78;100.00
25722;BME280;13578;53.450;15.496;2022-11-23T15:38:38;98841.56;;;1.74;100.00
25722;BME280;13578;53.450;15.496;2022-11-23T15:41:40;98839.06;;;1.71;100.00
25722;BME280;13578;53.450;15.496;2022-11-23T15:44:41;98839.28;;;1.81;100.00
25722;BME280;13578;53.450;15.496;2022-11-23T15:47:41;98842.53;;;1.73;100.00
25722;BME280;13578;53.450;15.496;2022-11-23T15:50:49;98837.31;;;1.70;100.00
25722;BME280;13578;53.450;15.496;2022-11-23T15:53:51;98842.31;;;1.77;100.00
25722;BME280;13578;53.450;15.496;2022-11-23T15:56:54;98843.81;;;1.68;100.00
25722;BME280;13578;53.450;15.496;2022-11-23T16:00:00;98837.19;;;1.59;100.00
25722;BME280;13578;53.450;15.496;2022-11-23T16:03:24;98847.41;;;1.68;100.00
25722;BME280;13578;53.450;15.496;2022-11-23T16:06:40;98837.75;;;1.64;100.00
25722;BME280;13578;53.450;15.496;2022-11-23T16:09:42;98842.97;;;1.67;100.00
25722;BME280;13578;53.450;15.496;2022-11-23T16:12:48;98849.34;;;1.66;100.00
25722;BME280;13578;53.450;15.496;2022-11-23T16:15:58;98840.75;;;1.59;100.00
25722;BME280;13578;53.450;15.496;2022-11-23T16:18:59;98833.81;;;1.42;100.00
25722;BME280;13578;53.450;15.496;2022-11-23T16:22:05;98849.84;;;1.46;100.00
25722;BME280;13578;53.450;15.496;2022-11-23T16:25:25;98843.59;;;1.58;100.00
25722;BME280;13578;53.450;15.496;2022-11-23T16:28:34;98849.84;;;1.58;100.00
25722;BME280;13578;53.450;15.496;2022-11-23T16:31:39;98849.19;;;1.55;100.00
25722;BME280;13578;53.450;15.496;2022-11-23T16:34:41;98845.94;;;1.50;100.00
25722;BME280;13578;53.450;15.496;2022-11-23T16:37:44;98857.00;;;1.59;100.00
25722;BME280;13578;53.450;15.496;2022-11-23T16:40:45;98854.81;;;1.52;100.00
25722;BME280;13578;53.450;15.496;2022-11-23T16:43:51;98851.69;;;1.58;100.00
25722;BME280;13578;53.450;15.496;2022-11-23T16:46:54;98848.78;;;1.61;100.00
25722;BME280;13578;53.450;15.496;2022-11-23T16:50:09;98854.19;;;1.61;100.00
25722;BME280;13578;53.450;15.496;2022-11-23T16:53:13;98860.78;;;1.57;100.00
25722;BME280;13578;53.450;15.496;2022-11-23T16:56:20;98861.31;;;1.49;100.00
25722;BME280;13578;53.450;15.496;2022-11-23T16:59:21;98858.69;;;1.48;100.00
25722;BME280;13578;53.450;15.496;2022-11-23T17:02:23;98859.69;;;1.47;100.00
25722;BME280;13578;53.450;15.496;2022-11-23T17:05:23;98862.38;;;1.47;100.00
25722;BME280;13578;53.450;15.496;2022-11-23T17:08:24;98863.25;;;1.47;100.00
25722;BME280;13578;53.450;15.496;2022-11-23T17:11:25;98862.28;;;1.48;100.00
25722;BME280;13578;53.450;15.496;2022-11-23T17:14:25;98856.56;;;1.53;100.00
25722;BME280;13578;53.450;15.496;2022-11-23T17:17:27;98854.81;;;1.52;100.00
25722;BME280;13578;53.450;15.496;2022-11-23T17:20:29;98863.91;;;1.51;100.00
25722;BME280;13578;53.450;15.496;2022-11-23T17:23:30;98860.22;;;1.52;100.00
25722;BME280;13578;53.450;15.496;2022-11-23T17:26:34;98859.16;;;1.54;100.00
25722;BME280;13578;53.450;15.496;2022-11-23T17:29:35;98867.06;;;1.57;100.00
25722;BME280;13578;53.450;15.496;2022-11-23T17:32:36;98863.72;;;1.54;100.00
25722;BME280;13578;53.450;15.496;2022-11-23T17:35:37;98867.81;;;1.59;100.00
25722;BME280;13578;53.450;15.496;2022-11-23T17:38:38;98874.09;;;1.60;100.00
25722;BME280;13578;53.450;15.496;2022-11-23T17:41:38;98877.66;;;1.61;100.00
25722;BME280;13578;53.450;15.496;2022-11-23T17:44:39;98872.78;;;1.53;100.00
25722;BME280;13578;53.450;15.496;2022-11-23T17:47:41;98877.78;;;1.59;100.00